Etusivu
METAR-TAF:

METAR-TAF

Lentoasemat :

Burnet Municipal Airport (Kate Craddock Field)

Burnet, Texas, Yhdysvallat

Leveyspiiri: 30-44-26N, Pituuspiiri: 098-14-07W, korkeus merenpinnasta: 392 m

Tämänhetkinen sää

Tämä raportti tehtiin 11 minuuttia sitten, kello 07.53 UTC
Tuuli 7 kn etelästä puuskistuen 15 kn:hen
Lämpötila 19°C
Kosteus 83%
Ilmanpaine 1016 hPa
Näkyvyys: 16.1 km
Hajonneita pilviä 2000 ft:n korkeudessa

METAR: KBMQ 220753Z AUTO 17007G15KT 10SM BKN020 19/16 A3000 RMK AO2 SLP142 T01940156

Aika: 03:04 (08:04 UTC)


TAF: puuttuu

Säähavainnot ja -ennusteet yli 4000 lentoasemalta (METAR- ja TAF-raportit).

Käytössä olevat sääasemat on merkitty karttaan keltaisilla ja punaisilla pisteillä.

Aseta hiiri pisteen päälle nähdäksesi sääaseman nimen.

Klikkaa sitten nähdäksesi säähavainnot ja -ennusteet.

Kartan vaihtaminen: klikkaa mustalla rastilla varustettuja vihreitä pisteitä, niin voit zoomata sisään; viivalla varustettua vihreää pistettä, niin voit zoomata ulos tai vihreitä nuolia, niin pääset viereisille kartoille.


METAR-TAF: